Time;durP1;ratioP1;P1;durP2;ratioP2;P2;SDS_P1;SDS_P2;PMS_P1;PMS_P2;Temp;Humidity;BMP_temperature;BMP_pressure;BME280_temperature;BME280_humidity;BME280_pressure;Samples;Min_cycle;Max_cycle;Signal;HPM_P1;HPM_P2
2022/01/29 00:03:50;;;;;;;38.00;12.32;;;;;;;4.91;100.00;102300.19;10034321;29;20118;-68
2022/01/29 00:08:46;;;;;;;26.70;12.75;;;;;;;4.91;100.00;102295.59;10064314;29;20127;-68
2022/01/29 00:13:43;;;;;;;30.42;12.80;;;;;;;4.91;100.00;102289.34;10040859;28;20139;-68
2022/01/29 00:18:39;;;;;;;31.95;14.13;;;;;;;4.93;100.00;102262.84;10052346;28;20518;-68
2022/01/29 00:23:36;;;;;;;31.27;15.32;;;;;;;4.93;100.00;102257.41;10026350;29;20040;-68
2022/01/29 00:28:34;;;;;;;32.05;16.23;;;;;;;4.89;100.00;102248.94;10053072;29;20062;-68
2022/01/29 00:33:31;;;;;;;31.80;16.38;;;;;;;4.92;100.00;102237.63;10034575;28;20555;-68
2022/01/29 00:38:28;;;;;;;35.30;15.98;;;;;;;4.90;100.00;102228.06;10024248;29;20083;-68
2022/01/29 00:43:25;;;;;;;37.67;17.70;;;;;;;4.93;100.00;102224.88;10020336;29;20179;-68
2022/01/29 00:48:22;;;;;;;35.95;18.58;;;;;;;4.90;100.00;102206.38;10034094;28;20086;-68
2022/01/29 00:53:18;;;;;;;49.75;20.55;;;;;;;4.94;100.00;102191.28;10033572;29;20079;-68
2022/01/29 00:58:15;;;;;;;43.30;20.77;;;;;;;4.97;100.00;102179.97;10046171;28;20577;-68
2022/01/29 01:03:12;;;;;;;45.78;22.88;;;;;;;4.89;100.00;102166.81;10034329;29;20075;-68
2022/01/29 01:08:10;;;;;;;50.60;24.15;;;;;;;4.82;100.00;102170.47;10033675;28;20134;-68
2022/01/29 01:13:07;;;;;;;46.08;22.50;;;;;;;4.76;100.00;102168.75;10029364;29;20131;-68
2022/01/29 01:18:04;;;;;;;58.33;27.25;;;;;;;4.67;100.00;102181.06;10059217;28;20052;-68
2022/01/29 01:23:00;;;;;;;54.38;26.52;;;;;;;4.62;100.00;102140.31;10035741;28;20098;-69
2022/01/29 01:27:57;;;;;;;60.42;27.48;;;;;;;4.70;100.00;102137.19;10040379;28;20048;-68
2022/01/29 01:32:53;;;;;;;51.17;29.05;;;;;;;4.67;100.00;102126.06;10035612;29;20078;-68
2022/01/29 01:37:55;;;;;;;63.45;32.33;;;;;;;4.65;100.00;102123.56;10036541;29;20102;-68
2022/01/29 01:42:59;;;;;;;66.10;32.67;;;;;;;4.63;100.00;102126.50;10035458;28;20102;-69
2022/01/29 01:47:57;;;;;;;72.38;34.65;;;;;;;4.67;100.00;102110.59;10046561;28;20044;-69
2022/01/29 01:52:53;;;;;;;65.60;34.55;;;;;;;4.69;100.00;102111.19;10034761;29;20142;-68
2022/01/29 01:57:50;;;;;;;61.78;30.27;;;;;;;4.64;100.00;102083.97;10049353;28;20059;-68
2022/01/29 02:02:47;;;;;;;74.35;39.65;;;;;;;4.64;100.00;102054.19;10030484;29;20068;-68
2022/01/29 02:07:45;;;;;;;75.88;39.60;;;;;;;4.68;100.00;102041.78;10051495;28;20051;-68
2022/01/29 02:12:50;;;;;;;68.90;36.33;;;;;;;4.69;100.00;102027.19;10029898;29;20059;-71
2022/01/29 02:17:47;;;;;;;75.80;39.95;;;;;;;4.70;100.00;102020.69;10052100;28;20656;-71
2022/01/29 02:22:44;;;;;;;69.43;34.78;;;;;;;4.68;100.00;102012.00;10033584;28;20047;-71
2022/01/29 02:27:41;;;;;;;78.95;41.85;;;;;;;4.71;100.00;101994.41;10048217;28;20082;-72
2022/01/29 02:32:42;;;;;;;81.45;38.85;;;;;;;4.73;100.00;101974.13;10032863;28;20131;-71
2022/01/29 02:37:39;;;;;;;85.13;42.13;;;;;;;4.74;100.00;101964.97;10038913;28;20075;-72
2022/01/29 02:42:36;;;;;;;90.38;44.47;;;;;;;4.73;100.00;101952.47;10034297;29;20056;-72
2022/01/29 02:47:33;;;;;;;82.47;43.03;;;;;;;4.75;100.00;101950.31;10026305;28;20052;-71
2022/01/29 02:52:29;;;;;;;73.40;38.05;;;;;;;4.73;100.00;101930.78;10040110;29;20110;-72
2022/01/29 02:57:34;;;;;;;89.10;42.75;;;;;;;4.80;100.00;101936.03;10054545;28;20099;-71
2022/01/29 03:02:31;;;;;;;83.72;40.00;;;;;;;4.77;100.00;101926.50;10037463;29;20061;-71
2022/01/29 03:07:27;;;;;;;80.97;42.20;;;;;;;4.74;100.00;101921.59;10059508;28;20098;-72
2022/01/29 03:12:24;;;;;;;84.50;41.05;;;;;;;4.78;100.00;101906.50;10030385;28;20071;-71
2022/01/29 03:17:25;;;;;;;84.97;40.10;;;;;;;4.77;100.00;101894.00;10043122;28;20099;-72
2022/01/29 03:22:22;;;;;;;94.75;41.63;;;;;;;4.79;100.00;101910.84;10025875;29;20471;-71
2022/01/29 03:27:18;;;;;;;85.28;40.25;;;;;;;4.76;100.00;101886.94;10051520;28;20490;-72
2022/01/29 03:32:15;;;;;;;95.80;45.30;;;;;;;4.81;100.00;101884.31;10040809;29;20071;-71
2022/01/29 03:37:11;;;;;;;86.43;39.72;;;;;;;4.74;100.00;101862.00;10059964;28;20086;-71
2022/01/29 03:42:10;;;;;;;92.60;39.90;;;;;;;4.74;100.00;101844.94;10039192;29;20108;-72
2022/01/29 03:47:08;;;;;;;79.63;36.65;;;;;;;4.83;100.00;101832.59;10048337;28;20093;-72
2022/01/29 03:52:04;;;;;;;83.30;39.70;;;;;;;4.84;100.00;101805.22;10039363;29;20473;-71
2022/01/29 03:57:01;;;;;;;85.30;41.03;;;;;;;4.85;100.00;101804.16;10034808;28;20086;-71
2022/01/29 04:01:57;;;;;;;90.88;41.50;;;;;;;4.87;100.00;101800.34;10039352;29;20043;-72
2022/01/29 04:06:59;;;;;;;80.07;37.42;;;;;;;4.90;100.00;101792.56;10040455;28;20430;-72
2022/01/29 04:11:56;;;;;;;83.68;38.22;;;;;;;4.93;100.00;101772.25;10026152;29;20518;-72
2022/01/29 04:16:55;;;;;;;80.93;39.80;;;;;;;4.94;100.00;101755.72;10045159;28;20078;-72
2022/01/29 04:21:52;;;;;;;87.25;40.03;;;;;;;4.94;100.00;101763.03;10044446;29;20109;-71
2022/01/29 04:26:48;;;;;;;73.50;37.22;;;;;;;4.94;100.00;101744.06;10042456;28;20075;-72
2022/01/29 04:36:51;;;;;;;78.13;38.33;;;;;;;5.00;100.00;101756.63;10047012;28;20134;-72
2022/01/29 04:41:52;;;;;;;72.13;34.57;;;;;;;5.02;100.00;101738.19;10024109;29;20121;-72
2022/01/29 04:46:49;;;;;;;76.28;37.33;;;;;;;5.04;100.00;101731.44;10049621;29;20466;-71
2022/01/29 04:51:45;;;;;;;69.78;33.38;;;;;;;5.06;100.00;101713.03;10039466;29;20044;-71
2022/01/29 04:56:42;;;;;;;72.47;36.35;;;;;;;5.11;100.00;101704.13;10053123;29;20055;-71
2022/01/29 05:01:39;;;;;;;75.45;35.40;;;;;;;5.16;100.00;101696.03;10018396;28;20059;-71
2022/01/29 05:06:35;;;;;;;74.82;37.03;;;;;;;5.18;100.00;101693.91;10049783;28;20051;-72
2022/01/29 05:11:32;;;;;;;74.13;34.70;;;;;;;5.24;100.00;101692.88;10025963;29;20497;-72
2022/01/29 05:17:19;;;;;;;67.47;35.17;;;;;;;5.27;100.00;101675.28;10030723;28;20090;-72
2022/01/29 05:27:05;;;;;;;66.45;32.40;;;;;;;5.32;100.00;101640.06;10050737;28;20134;-71
2022/01/29 05:32:05;;;;;;;65.25;33.42;;;;;;;5.37;100.00;101636.56;10043504;28;20119;-71
2022/01/29 05:37:02;;;;;;;55.58;28.95;;;;;;;5.41;100.00;101626.84;10047514;28;20529;-71
2022/01/29 05:41:59;;;;;;;57.22;29.70;;;;;;;5.43;100.00;101630.06;10057857;28;20048;-72
2022/01/29 05:46:56;;;;;;;67.43;33.95;;;;;;;5.51;100.00;101632.31;10027784;28;20067;-71
2022/01/29 05:51:52;;;;;;;65.82;32.22;;;;;;;5.55;100.00;101627.19;10033553;28;20075;-71
2022/01/29 05:56:49;;;;;;;66.00;32.42;;;;;;;5.61;100.00;101609.84;10032474;28;20071;-71
2022/01/29 06:01:45;;;;;;;52.85;30.13;;;;;;;5.64;100.00;101610.16;10034541;28;20078;-71
2022/01/29 06:06:42;;;;;;;55.75;27.40;;;;;;;5.66;100.00;101602.56;10038003;28;20054;-71
2022/01/29 06:11:38;;;;;;;58.28;29.35;;;;;;;5.72;100.00;101599.88;10034062;29;20074;-71
2022/01/29 06:16:35;;;;;;;53.72;28.88;;;;;;;5.76;100.00;101587.44;10030023;28;20466;-71
2022/01/29 06:21:32;;;;;;;52.65;27.67;;;;;;;5.81;100.00;101571.16;10036984;28;20057;-71
2022/01/29 06:26:28;;;;;;;48.50;24.85;;;;;;;5.84;100.00;101559.78;10049178;28;20070;-71
2022/01/29 06:31:25;;;;;;;56.35;28.80;;;;;;;5.89;100.00;101557.06;10033842;29;20566;-74
2022/01/29 06:36:21;;;;;;;51.33;27.17;;;;;;;5.90;100.00;101572.28;10054976;28;20047;-71
2022/01/29 06:41:18;;;;;;;61.10;29.15;;;;;;;5.92;100.00;101543.00;10033528;29;20550;-73
2022/01/29 06:46:14;;;;;;;62.72;31.48;;;;;;;5.98;100.00;101533.78;10042542;28;20098;-72
2022/01/29 06:51:11;;;;;;;56.38;30.38;;;;;;;6.00;100.00;101537.06;10017758;29;20044;-71
2022/01/29 06:56:08;;;;;;;54.30;26.95;;;;;;;6.01;100.00;101533.28;10043632;28;20469;-72
2022/01/29 07:01:04;;;;;;;65.65;31.10;;;;;;;6.06;100.00;101552.28;10038331;28;20048;-72
2022/01/29 07:06:04;;;;;;;74.05;31.77;;;;;;;6.10;100.00;101553.41;10032166;28;20409;-72
2022/01/29 07:11:00;;;;;;;71.43;35.60;;;;;;;6.14;100.00;101537.38;10040819;29;20580;-72
2022/01/29 07:15:56;;;;;;;79.80;35.47;;;;;;;6.17;100.00;101557.72;10048015;28;20821;-72
2022/01/29 07:20:53;;;;;;;72.20;35.60;;;;;;;6.21;100.00;101569.69;10037692;29;20746;-72
2022/01/29 07:25:50;;;;;;;68.80;34.95;;;;;;;6.26;100.00;101567.00;10049360;28;20050;-72
2022/01/29 07:30:46;;;;;;;64.97;30.83;;;;;;;6.29;100.00;101577.34;10051476;29;20143;-72
2022/01/29 07:35:43;;;;;;;61.25;29.55;;;;;;;6.32;100.00;101561.31;10044027;28;20040;-72
2022/01/29 07:40:39;;;;;;;52.45;24.30;;;;;;;6.37;100.00;101562.41;10033865;28;20072;-72
2022/01/29 07:45:36;;;;;;;45.40;23.17;;;;;;;6.43;100.00;101561.31;10019314;28;20122;-72
2022/01/29 07:50:32;;;;;;;51.17;27.05;;;;;;;6.45;100.00;101554.56;10010070;29;20043;-72
2022/01/29 07:55:30;;;;;;;39.95;22.83;;;;;;;6.47;100.00;101536.06;10017620;28;20131;-71
2022/01/29 08:00:26;;;;;;;37.58;17.98;;;;;;;6.50;100.00;101545.59;10021713;29;20139;-72
2022/01/29 08:05:25;;;;;;;39.17;21.45;;;;;;;6.52;100.00;101530.66;10025648;29;20478;-72
2022/01/29 08:10:21;;;;;;;38.28;21.50;;;;;;;6.56;100.00;101528.19;10035202;28;20573;-74
2022/01/29 08:15:18;;;;;;;34.75;19.13;;;;;;;6.58;100.00;101520.59;10044043;28;20048;-72
2022/01/29 08:20:15;;;;;;;21.58;12.30;;;;;;;6.59;100.00;101510.53;10053864;29;20554;-72
2022/01/29 08:25:11;;;;;;;30.25;17.25;;;;;;;6.60;100.00;101504.03;10036474;28;20097;-73
2022/01/29 08:30:08;;;;;;;29.35;15.73;;;;;;;6.64;100.00;101497.78;10057743;29;20052;-72
2022/01/29 08:35:04;;;;;;;24.17;14.18;;;;;;;6.64;100.00;101486.09;10041274;28;20091;-72
2022/01/29 08:40:01;;;;;;;27.08;13.90;;;;;;;6.63;100.00;101466.25;10049218;29;20450;-73
2022/01/29 08:44:57;;;;;;;24.52;15.45;;;;;;;6.67;100.00;101463.81;10011557;29;20558;-73
2022/01/29 08:49:55;;;;;;;27.83;14.48;;;;;;;6.70;100.00;101436.06;10041018;28;20078;-72
2022/01/29 08:54:51;;;;;;;22.20;14.18;;;;;;;6.71;100.00;101454.03;10038844;29;20082;-72
2022/01/29 08:59:48;;;;;;;23.52;14.23;;;;;;;6.72;100.00;101433.91;10032130;28;20115;-73
2022/01/29 09:04:50;;;;;;;25.38;13.98;;;;;;;6.75;100.00;101433.34;10038515;29;20155;-73
2022/01/29 09:09:46;;;;;;;20.60;13.43;;;;;;;6.80;100.00;101417.03;10025583;28;20067;-73
2022/01/29 09:14:43;;;;;;;23.23;13.23;;;;;;;6.80;100.00;101430.63;10039517;29;20565;-73
2022/01/29 09:19:40;;;;;;;22.15;13.23;;;;;;;6.89;100.00;101399.09;10050711;28;20074;-73
2022/01/29 09:24:37;;;;;;;23.00;12.80;;;;;;;6.83;100.00;101394.75;10038344;29;20107;-73
2022/01/29 09:29:33;;;;;;;20.52;12.95;;;;;;;6.90;100.00;101392.53;10055888;29;20106;-73
2022/01/29 09:34:30;;;;;;;22.88;11.23;;;;;;;6.92;100.00;101376.78;10040225;29;20051;-73
2022/01/29 09:39:26;;;;;;;16.15;10.52;;;;;;;6.93;100.00;101386.53;10042490;28;20130;-73
2022/01/29 09:44:23;;;;;;;17.85;9.90;;;;;;;6.95;100.00;101389.81;10031361;28;20074;-73
2022/01/29 09:49:19;;;;;;;16.80;10.82;;;;;;;7.00;100.00;101396.31;10033862;28;20079;-72
2022/01/29 09:54:16;;;;;;;15.65;10.05;;;;;;;7.03;100.00;101368.56;10032728;28;20051;-73
2022/01/29 09:59:12;;;;;;;22.35;11.93;;;;;;;7.04;100.00;101348.47;10039008;29;20098;-73
2022/01/29 10:04:13;;;;;;;21.08;11.82;;;;;;;7.05;100.00;101355.50;10030008;29;20507;-73
2022/01/29 10:09:11;;;;;;;19.98;11.10;;;;;;;7.07;100.00;101358.75;10059826;29;21576;-73
2022/01/29 10:14:08;;;;;;;16.23;10.98;;;;;;;7.08;100.00;101335.94;10030973;28;20098;-73
2022/01/29 10:19:09;;;;;;;16.73;10.32;;;;;;;7.22;100.00;101328.78;10055846;28;20078;-73
2022/01/29 10:24:15;;;;;;;15.85;9.77;;;;;;;7.20;100.00;101309.22;10021851;29;20469;-73
2022/01/29 10:29:23;;;;;;;13.98;7.53;;;;;;;7.18;100.00;101305.16;10064990;29;20078;-72
2022/01/29 10:34:23;;;;;;;13.32;8.63;;;;;;;7.18;100.00;101273.31;10024813;28;20109;-73
2022/01/29 10:39:29;;;;;;;16.58;8.27;;;;;;;7.22;100.00;101262.69;10060703;28;20079;-73
2022/01/29 10:44:32;;;;;;;16.48;8.35;;;;;;;7.25;100.00;101257.50;10050589;28;20056;-73
2022/01/29 10:49:32;;;;;;;13.88;7.63;;;;;;;7.38;100.00;101251.44;10050765;28;20535;-70
2022/01/29 10:54:30;;;;;;;17.27;9.02;;;;;;;7.34;100.00;101239.47;10025542;29;20051;-70
2022/01/29 10:59:32;;;;;;;14.80;8.27;;;;;;;7.42;100.00;101212.78;10029882;28;20044;-70
2022/01/29 11:04:31;;;;;;;12.52;7.38;;;;;;;7.48;100.00;101207.00;10025772;29;20510;-69
2022/01/29 11:09:29;;;;;;;13.50;8.32;;;;;;;7.51;100.00;101189.28;10038915;28;20051;-70
2022/01/29 11:14:28;;;;;;;16.08;8.50;;;;;;;7.51;100.00;101156.66;10046515;28;20070;-70
2022/01/29 11:19:24;;;;;;;15.63;8.25;;;;;;;7.51;100.00;101151.19;10040754;28;20043;-70
2022/01/29 11:24:26;;;;;;;13.35;8.35;;;;;;;7.53;100.00;101181.66;10032063;29;20542;-70
2022/01/29 11:29:36;;;;;;;13.55;7.97;;;;;;;7.55;100.00;101163.13;10042797;29;20044;-70
2022/01/29 11:34:32;;;;;;;14.98;9.07;;;;;;;7.46;100.00;101126.75;10034960;29;20138;-70
2022/01/29 11:39:29;;;;;;;15.07;9.55;;;;;;;7.48;100.00;101136.25;10046406;28;20538;-70
2022/01/29 11:44:27;;;;;;;19.88;10.18;;;;;;;7.52;100.00;101145.47;10035322;29;20052;-70
2022/01/29 11:49:23;;;;;;;18.25;8.65;;;;;;;7.53;100.00;101149.00;10053252;28;20067;-70
2022/01/29 11:54:23;;;;;;;14.02;7.80;;;;;;;7.61;100.00;101147.56;10038527;29;20083;-70
2022/01/29 11:59:20;;;;;;;16.00;8.50;;;;;;;7.64;100.00;101112.44;10048199;28;20099;-71
2022/01/29 12:04:16;;;;;;;16.73;8.00;;;;;;;7.70;100.00;101105.00;10019449;28;20075;-70
2022/01/29 12:09:19;;;;;;;13.40;7.07;;;;;;;7.76;100.00;101114.75;10039579;28;20094;-70
2022/01/29 12:14:16;;;;;;;13.98;7.05;;;;;;;7.75;100.00;101092.19;10029267;28;20134;-70
2022/01/29 12:19:41;;;;;;;11.48;6.93;;;;;;;7.79;100.00;101065.97;10055742;28;20267;-69
2022/01/29 12:24:39;;;;;;;11.68;7.15;;;;;;;7.80;100.00;101072.25;10036573;29;20047;-70
2022/01/29 12:29:36;;;;;;;10.30;6.18;;;;;;;7.84;100.00;101028.91;10042005;29;20502;-71
2022/01/29 12:34:32;;;;;;;12.13;7.18;;;;;;;7.84;100.00;101023.47;10033296;29;20827;-70
2022/01/29 12:39:28;;;;;;;12.27;5.63;;;;;;;7.82;100.00;101015.59;10050980;28;20044;-70
2022/01/29 12:44:25;;;;;;;14.68;6.53;;;;;;;7.85;100.00;101000.59;10025740;29;20048;-70
2022/01/29 12:49:22;;;;;;;13.75;6.10;;;;;;;7.90;100.00;100984.19;10051251;28;20048;-70
2022/01/29 12:54:18;;;;;;;9.50;5.28;;;;;;;7.93;100.00;100951.72;10023823;29;20047;-70
2022/01/29 12:59:16;;;;;;;11.70;4.30;;;;;;;7.98;100.00;100964.47;10054775;28;20071;-70
2022/01/29 13:04:17;;;;;;;6.63;3.35;;;;;;;8.09;100.00;100940.63;10017902;29;20156;-71
2022/01/29 13:09:19;;;;;;;7.97;3.88;;;;;;;8.11;100.00;100931.03;10056167;28;20184;-69
2022/01/29 13:14:19;;;;;;;10.32;3.90;;;;;;;8.15;100.00;100899.41;10033780;29;20047;-70
2022/01/29 13:19:16;;;;;;;5.60;3.15;;;;;;;8.25;100.00;100881.28;10046111;29;20560;-70
2022/01/29 13:24:40;;;;;;;9.40;2.53;;;;;;;8.26;100.00;100852.91;10068601;28;20703;-70
2022/01/29 13:29:51;;;;;;;10.45;2.92;;;;;;;8.35;100.00;100842.94;10053810;29;20055;-70
2022/01/29 13:34:48;;;;;;;4.97;2.20;;;;;;;8.40;100.00;100834.72;10028544;29;20106;-70
2022/01/29 13:39:48;;;;;;;5.30;2.40;;;;;;;8.51;100.00;100824.44;10056481;28;20082;-70
2022/01/29 13:45:08;;;;;;;10.00;2.17;;;;;;;8.51;100.00;100803.44;10016248;29;20558;-70
2022/01/29 13:50:32;;;;;;;6.13;1.55;;;;;;;8.59;100.00;100777.41;10033614;28;20055;-70
2022/01/29 13:55:29;;;;;;;10.10;1.90;;;;;;;8.58;100.00;100770.34;10037761;28;20051;-70
2022/01/29 14:00:28;;;;;;;7.10;1.85;;;;;;;8.66;100.00;100771.53;10043350;29;20118;-70
2022/01/29 14:05:28;;;;;;;8.27;2.05;;;;;;;8.57;100.00;100764.09;10035245;28;20051;-70
2022/01/29 14:10:24;;;;;;;11.10;1.80;;;;;;;8.55;100.00;100770.94;10058490;29;20123;-70
2022/01/29 14:15:21;;;;;;;14.98;1.98;;;;;;;8.57;100.00;100741.47;10034775;28;20051;-71
2022/01/29 14:20:19;;;;;;;7.03;1.67;;;;;;;8.63;100.00;100746.53;10037708;28;20047;-71
2022/01/29 14:25:21;;;;;;;12.00;2.20;;;;;;;8.70;100.00;100739.84;10031095;28;20470;-71
2022/01/29 14:30:18;;;;;;;8.77;2.27;;;;;;;8.79;100.00;100710.75;10037191;28;20102;-70
2022/01/29 14:35:15;;;;;;;12.95;2.75;;;;;;;8.79;100.00;100729.84;10013712;28;20881;-70
2022/01/29 14:40:14;;;;;;;6.20;1.90;;;;;;;8.86;100.00;100735.69;10036887;28;20040;-70
2022/01/29 14:45:13;;;;;;;8.45;1.80;;;;;;;8.88;100.00;100738.09;10043449;28;20413;-70
2022/01/29 14:50:10;;;;;;;9.38;2.20;;;;;;;8.96;100.00;100713.66;10018927;28;20482;-69
2022/01/29 14:55:08;;;;;;;12.20;2.10;;;;;;;8.96;100.00;100704.69;10041085;28;20387;-69
2022/01/29 15:00:05;;;;;;;16.48;2.03;;;;;;;9.10;100.00;100699.16;10037045;28;20064;-69
2022/01/29 15:05:03;;;;;;;9.32;1.80;;;;;;;8.97;100.00;100701.63;10048388;29;20066;-68
2022/01/29 15:09:59;;;;;;;11.18;2.08;;;;;;;9.01;100.00;100724.44;10068830;29;20105;-70
2022/01/29 15:14:56;;;;;;;7.57;2.03;;;;;;;8.96;100.00;100689.13;10041360;29;20078;-69
2022/01/29 15:20:12;;;;;;;14.52;2.00;;;;;;;8.95;100.00;100659.41;10053254;29;20516;-68
2022/01/29 15:25:09;;;;;;;11.07;1.88;;;;;;;8.92;100.00;100669.03;10015853;28;20051;-70
2022/01/29 15:30:08;;;;;;;6.65;1.25;;;;;;;8.94;100.00;100653.16;10057537;28;20708;-68
2022/01/29 15:35:05;;;;;;;13.75;2.83;;;;;;;9.01;100.00;100642.63;10039534;28;20051;-70
2022/01/29 15:40:03;;;;;;;10.70;2.20;;;;;;;9.31;100.00;100655.84;10024682;29;20419;-70
2022/01/29 15:45:05;;;;;;;14.68;2.53;;;;;;;9.34;100.00;100661.47;10034108;28;20120;-70
2022/01/29 15:50:02;;;;;;;8.52;1.80;;;;;;;9.44;100.00;100628.47;10024705;28;20522;-70
2022/01/29 15:54:59;;;;;;;11.80;2.15;;;;;;;9.64;100.00;100642.72;10036701;29;20139;-71
2022/01/29 15:59:55;;;;;;;19.30;2.25;;;;;;;9.60;100.00;100625.34;10006341;28;20048;-70
2022/01/29 16:04:52;;;;;;;20.15;3.05;;;;;;;9.61;100.00;100674.19;10035433;29;20050;-70
2022/01/29 16:09:48;;;;;;;24.10;2.90;;;;;;;9.26;100.00;100654.06;10038877;28;20070;-70
2022/01/29 16:14:46;;;;;;;20.77;3.90;;;;;;;9.04;100.00;100652.91;10029672;29;20154;-70
2022/01/29 16:19:42;;;;;;;17.35;2.50;;;;;;;8.98;100.00;100670.53;10044658;29;20044;-70
2022/01/29 16:24:39;;;;;;;10.57;2.90;;;;;;;9.12;100.00;100658.75;10039538;29;20106;-70
2022/01/29 16:29:35;;;;;;;17.77;2.83;;;;;;;9.05;100.00;100698.19;10032640;28;20582;-70
2022/01/29 16:34:32;;;;;;;20.50;3.75;;;;;;;8.97;100.00;100652.53;10048823;28;20062;-70
2022/01/29 16:39:28;;;;;;;21.50;3.95;;;;;;;9.09;100.00;100763.00;10042006;29;20048;-70
2022/01/29 16:44:28;;;;;;;17.33;3.50;;;;;;;9.01;100.00;100637.19;10037397;28;20514;-71
2022/01/29 16:49:27;;;;;;;21.20;3.70;;;;;;;8.95;100.00;100654.75;10033952;28;20074;-70
2022/01/29 16:54:23;;;;;;;29.05;4.80;;;;;;;8.82;100.00;100658.38;10038528;29;20079;-69
2022/01/29 16:59:22;;;;;;;23.45;3.83;;;;;;;8.81;100.00;100681.28;10045321;28;20051;-70
2022/01/29 17:04:18;;;;;;;22.45;3.75;;;;;;;8.70;100.00;100675.22;10027303;29;20098;-70
2022/01/29 17:09:15;;;;;;;24.67;5.03;;;;;;;8.55;100.00;100695.44;10046450;28;20559;-70
2022/01/29 17:14:11;;;;;;;23.23;5.40;;;;;;;8.25;100.00;100706.94;10030263;29;20051;-70
2022/01/29 17:19:08;;;;;;;27.05;5.07;;;;;;;7.98;100.00;100735.75;10045087;28;20091;-70
2022/01/29 17:24:05;;;;;;;33.75;5.40;;;;;;;7.80;100.00;100707.50;10013524;29;20048;-71
2022/01/29 17:29:02;;;;;;;55.25;8.07;;;;;;;7.84;100.00;100722.09;10046794;28;20064;-70
2022/01/29 17:33:58;;;;;;;24.92;5.60;;;;;;;7.88;100.00;100757.72;10008964;29;20067;-70
2022/01/29 17:38:58;;;;;;;45.35;7.50;;;;;;;7.90;100.00;100739.16;10035966;28;20086;-69
2022/01/29 17:43:55;;;;;;;52.63;8.75;;;;;;;7.86;100.00;100732.69;10031588;29;20048;-70
2022/01/29 17:48:52;;;;;;;36.92;7.22;;;;;;;7.80;100.00;100809.00;10047666;28;20051;-70
2022/01/29 17:53:48;;;;;;;44.78;7.03;;;;;;;7.74;100.00;100790.34;10018761;29;20083;-70
2022/01/29 17:58:44;;;;;;;30.65;5.60;;;;;;;7.68;100.00;100808.66;10070820;28;20594;-70
2022/01/29 18:03:42;;;;;;;40.42;7.40;;;;;;;7.63;100.00;100795.13;10033840;29;20071;-71
2022/01/29 18:08:39;;;;;;;36.03;6.55;;;;;;;7.56;100.00;100821.91;10053554;28;20040;-70
2022/01/29 18:13:37;;;;;;;34.80;6.70;;;;;;;7.47;100.00;100834.53;9996835;29;20071;-66
2022/01/29 18:18:33;;;;;;;39.70;6.57;;;;;;;7.36;100.00;100840.13;10056257;28;20044;-69
2022/01/29 18:23:30;;;;;;;49.80;7.63;;;;;;;7.24;100.00;100839.78;10007575;29;20450;-69
2022/01/29 18:28:26;;;;;;;47.13;7.18;;;;;;;7.26;100.00;100881.06;10037228;28;20048;-69
2022/01/29 18:33:23;;;;;;;48.92;7.28;;;;;;;7.21;100.00;100848.50;10040198;29;20059;-69
2022/01/29 18:38:21;;;;;;;32.25;6.18;;;;;;;7.18;100.00;100854.53;10049329;28;20609;-69
2022/01/29 18:43:19;;;;;;;47.83;9.07;;;;;;;7.16;100.00;100867.59;10039990;28;20473;-69
2022/01/29 18:48:16;;;;;;;43.50;8.32;;;;;;;6.98;100.00;100903.69;10055665;28;20143;-69
2022/01/29 18:53:12;;;;;;;43.88;7.57;;;;;;;6.89;100.00;100925.25;10041904;28;20072;-69
2022/01/29 18:58:09;;;;;;;34.72;6.15;;;;;;;6.89;100.00;100945.13;10041508;29;20102;-69
2022/01/29 19:03:07;;;;;;;49.17;6.70;;;;;;;6.85;100.00;100916.88;10039940;29;20048;-70
2022/01/29 19:08:05;;;;;;;49.45;7.90;;;;;;;6.88;100.00;100940.75;10065263;28;20107;-70
2022/01/29 19:13:01;;;;;;;33.08;7.63;;;;;;;6.79;100.00;100939.75;10028955;28;20512;-70
2022/01/29 19:18:00;;;;;;;40.90;7.90;;;;;;;6.76;100.00;100955.84;10055702;28;20106;-70
2022/01/29 19:22:57;;;;;;;46.63;6.38;;;;;;;6.72;100.00;100925.72;10038627;29;20091;-70
2022/01/29 19:27:54;;;;;;;45.72;7.07;;;;;;;6.67;100.00;100931.19;10048173;28;20561;-70
2022/01/29 19:32:51;;;;;;;48.00;7.97;;;;;;;6.60;100.00;100936.16;10034345;29;20108;-69
2022/01/29 19:37:48;;;;;;;38.15;7.15;;;;;;;6.55;100.00;100947.88;10052965;28;20107;-69
2022/01/29 19:42:44;;;;;;;33.53;6.22;;;;;;;6.50;100.00;100970.47;10039692;29;20414;-69
2022/01/29 19:47:41;;;;;;;32.83;4.97;;;;;;;6.44;100.00;101008.81;10038702;28;20135;-69
2022/01/29 19:52:39;;;;;;;22.50;3.88;;;;;;;6.31;100.00;100988.53;10039487;29;20139;-70
2022/01/29 19:57:36;;;;;;;33.80;5.30;;;;;;;6.14;100.00;100998.97;10049517;28;20079;-69
2022/01/29 20:02:33;;;;;;;35.50;5.63;;;;;;;6.06;100.00;101016.66;10055383;28;20055;-69
2022/01/29 20:07:30;;;;;;;37.50;6.35;;;;;;;6.02;100.00;101002.03;10044803;28;20059;-70
2022/01/29 20:12:26;;;;;;;37.38;6.45;;;;;;;5.97;100.00;101013.72;10038866;29;20090;-70
2022/01/29 20:17:23;;;;;;;32.97;5.97;;;;;;;5.96;100.00;101020.22;10055310;29;20138;-69
2022/01/29 20:22:20;;;;;;;27.92;5.47;;;;;;;5.94;100.00;101000.72;10041673;28;20060;-70
2022/01/29 20:27:16;;;;;;;34.20;6.28;;;;;;;6.01;100.00;101011.25;10042872;28;20050;-70
2022/01/29 20:32:15;;;;;;;45.42;7.35;;;;;;;6.08;100.00;100990.88;10048552;28;20060;-71
2022/01/29 20:37:14;;;;;;;32.40;6.65;;;;;;;6.08;100.00;101018.00;10036880;28;20086;-71
2022/01/29 20:42:10;;;;;;;46.65;7.70;;;;;;;6.10;100.00;101010.41;10024320;29;20115;-71
2022/01/29 20:47:06;;;;;;;37.72;6.50;;;;;;;6.11;100.00;101001.16;10032457;28;20056;-71
2022/01/29 20:52:04;;;;;;;41.58;7.00;;;;;;;6.10;100.00;100999.53;10010630;29;20537;-71
2022/01/29 20:57:00;;;;;;;30.35;6.72;;;;;;;6.13;100.00;101047.03;10049458;28;20094;-70
2022/01/29 21:01:57;;;;;;;42.40;8.05;;;;;;;6.16;100.00;101007.66;10066188;28;20122;-70
2022/01/29 21:07:13;;;;;;;48.17;6.40;;;;;;;6.15;100.00;101011.44;10034130;29;20391;-70
2022/01/29 21:12:10;;;;;;;45.80;7.45;;;;;;;6.08;100.00;101012.56;10036667;28;20051;-70
2022/01/29 21:17:06;;;;;;;44.50;7.15;;;;;;;6.05;100.00;101026.69;10021001;28;20115;-70
2022/01/29 21:22:03;;;;;;;22.52;4.38;;;;;;;5.99;100.00;101048.75;10039788;28;20047;-69
2022/01/29 21:27:03;;;;;;;46.95;6.03;;;;;;;5.89;100.00;101014.25;10031401;28;20094;-69
2022/01/29 21:32:00;;;;;;;25.65;4.72;;;;;;;5.82;100.00;101035.47;10020809;28;20082;-69
2022/01/29 21:36:58;;;;;;;20.30;3.20;;;;;;;5.74;100.00;101044.19;10033152;28;20095;-69
2022/01/29 21:41:57;;;;;;;11.68;2.75;;;;;;;5.63;100.00;101054.25;10033877;29;20099;-70
2022/01/29 21:46:53;;;;;;;25.23;4.93;;;;;;;5.74;100.00;101055.03;10034019;28;20518;-70
2022/01/29 21:51:50;;;;;;;42.25;7.97;;;;;;;5.77;100.00;101049.06;10027747;29;20103;-70
2022/01/29 21:56:48;;;;;;;37.58;6.05;;;;;;;5.85;100.00;101045.78;10040606;28;20110;-71
2022/01/29 22:01:47;;;;;;;38.10;5.38;;;;;;;5.90;100.00;101048.47;10020557;29;20557;-70
2022/01/29 22:06:44;;;;;;;36.40;5.95;;;;;;;5.97;100.00;101070.72;10040607;28;20058;-69
2022/01/29 22:11:41;;;;;;;36.65;6.47;;;;;;;5.98;100.00;101091.34;10015864;29;20104;-69
2022/01/29 22:16:37;;;;;;;33.13;5.20;;;;;;;5.75;100.00;101102.78;10039292;28;20062;-69
2022/01/29 22:21:35;;;;;;;45.90;5.88;;;;;;;5.58;100.00;101090.34;10008590;28;20514;-70
2022/01/29 22:26:32;;;;;;;34.65;5.65;;;;;;;5.54;100.00;101112.88;10031644;28;20186;-72
2022/01/29 22:31:29;;;;;;;24.23;4.88;;;;;;;5.48;100.00;101060.56;10033857;29;20093;-70
2022/01/29 22:36:25;;;;;;;32.15;5.20;;;;;;;5.50;100.00;101120.75;10045363;28;20063;-70
2022/01/29 22:41:22;;;;;;;37.42;6.40;;;;;;;5.59;100.00;101073.00;10028959;29;20793;-70